sensor_id;sensor_type;location;lat;lon;timestamp;pressure;altitude;pressure_sealevel;temperature;humidity
33635;BME280;19972;54.360;10.076;2022-10-26T00:01:09;102639.84;;;9.61;93.78
33635;BME280;19972;54.360;10.076;2022-10-26T00:03:38;102656.75;;;9.57;93.79
33635;BME280;19972;54.360;10.076;2022-10-26T00:06:14;102646.03;;;9.62;93.76
33635;BME280;19972;54.360;10.076;2022-10-26T00:08:41;102652.38;;;9.56;93.62
33635;BME280;19972;54.360;10.076;2022-10-26T00:11:07;102654.91;;;9.61;93.52
33635;BME280;19972;54.360;10.076;2022-10-26T00:13:35;102664.91;;;9.51;93.34
33635;BME280;19972;54.360;10.076;2022-10-26T00:16:23;102657.13;;;9.43;93.30
33635;BME280;19972;54.360;10.076;2022-10-26T00:18:50;102651.84;;;9.43;93.38
33635;BME280;19972;54.360;10.076;2022-10-26T00:21:17;102644.00;;;9.40;93.42
33635;BME280;19972;54.360;10.076;2022-10-26T00:23:43;102642.13;;;9.44;93.33
33635;BME280;19972;54.360;10.076;2022-10-26T00:26:10;102648.63;;;9.32;93.47
33635;BME280;19972;54.360;10.076;2022-10-26T00:28:37;102634.81;;;9.21;93.71
33635;BME280;19972;54.360;10.076;2022-10-26T00:31:07;102641.88;;;9.20;93.65
33635;BME280;19972;54.360;10.076;2022-10-26T00:33:34;102651.75;;;9.15;93.60
33635;BME280;19972;54.360;10.076;2022-10-26T00:36:01;102618.38;;;9.08;94.57
33635;BME280;19972;54.360;10.076;2022-10-26T00:38:28;102659.97;;;9.05;93.72
33635;BME280;19972;54.360;10.076;2022-10-26T00:40:54;102655.72;;;8.99;93.76
33635;BME280;19972;54.360;10.076;2022-10-26T00:45:52;102661.97;;;8.96;93.79
33635;BME280;19972;54.360;10.076;2022-10-26T00:48:29;102690.03;;;9.04;93.60
33635;BME280;19972;54.360;10.076;2022-10-26T00:50:59;102669.63;;;9.07;93.96
33635;BME280;19972;54.360;10.076;2022-10-26T00:53:26;102692.78;;;8.99;93.44
33635;BME280;19972;54.360;10.076;2022-10-26T00:55:54;102697.88;;;9.08;93.31
33635;BME280;19972;54.360;10.076;2022-10-26T00:58:21;102689.81;;;9.13;93.26
33635;BME280;19972;54.360;10.076;2022-10-26T01:00:50;102700.56;;;9.07;93.23
33635;BME280;19972;54.360;10.076;2022-10-26T01:03:17;102682.78;;;9.10;93.19
33635;BME280;19972;54.360;10.076;2022-10-26T01:05:45;102685.31;;;9.16;93.18
33635;BME280;19972;54.360;10.076;2022-10-26T01:08:14;102681.81;;;9.14;93.13
33635;BME280;19972;54.360;10.076;2022-10-26T01:10:42;102682.94;;;9.06;93.23
33635;BME280;19972;54.360;10.076;2022-10-26T01:13:10;102651.03;;;9.09;93.63
33635;BME280;19972;54.360;10.076;2022-10-26T01:15:50;102658.94;;;9.12;93.38
33635;BME280;19972;54.360;10.076;2022-10-26T01:18:29;102682.06;;;9.05;93.20
33635;BME280;19972;54.360;10.076;2022-10-26T01:24:28;102668.88;;;9.02;93.21
33635;BME280;19972;54.360;10.076;2022-10-26T01:29:56;102665.53;;;8.95;93.44
33635;BME280;19972;54.360;10.076;2022-10-26T01:32:36;102668.84;;;9.04;93.15
33635;BME280;19972;54.360;10.076;2022-10-26T01:35:13;102664.56;;;8.98;93.20
33635;BME280;19972;54.360;10.076;2022-10-26T01:37:46;102656.03;;;8.88;93.38
33635;BME280;19972;54.360;10.076;2022-10-26T01:40:22;102655.72;;;8.99;93.38
33635;BME280;19972;54.360;10.076;2022-10-26T01:42:52;102643.47;;;8.95;93.75
33635;BME280;19972;54.360;10.076;2022-10-26T01:45:20;102674.59;;;8.87;93.08
33635;BME280;19972;54.360;10.076;2022-10-26T01:47:47;102675.56;;;8.83;93.27
33635;BME280;19972;54.360;10.076;2022-10-26T01:50:16;102687.97;;;8.81;93.11
33635;BME280;19972;54.360;10.076;2022-10-26T01:52:43;102689.81;;;8.79;93.24
33635;BME280;19972;54.360;10.076;2022-10-26T02:00:58;102697.78;;;8.77;93.27
33635;BME280;19972;54.360;10.076;2022-10-26T02:03:32;102710.75;;;8.88;93.07
33635;BME280;19972;54.360;10.076;2022-10-26T02:06:08;102701.97;;;8.86;93.17
33635;BME280;19972;54.360;10.076;2022-10-26T02:08:46;102719.22;;;9.02;92.86
33635;BME280;19972;54.360;10.076;2022-10-26T02:11:31;102709.72;;;8.95;92.99
33635;BME280;19972;54.360;10.076;2022-10-26T02:17:07;102705.22;;;8.97;92.90
33635;BME280;19972;54.360;10.076;2022-10-26T02:19:50;102690.59;;;9.16;92.71
33635;BME280;19972;54.360;10.076;2022-10-26T02:22:32;102680.56;;;8.95;92.89
33635;BME280;19972;54.360;10.076;2022-10-26T02:25:04;102663.06;;;8.89;92.96
33635;BME280;19972;54.360;10.076;2022-10-26T02:27:35;102641.22;;;8.80;93.20
33635;BME280;19972;54.360;10.076;2022-10-26T02:30:04;102645.72;;;8.78;93.23
33635;BME280;19972;54.360;10.076;2022-10-26T02:32:34;102642.84;;;8.85;93.38
33635;BME280;19972;54.360;10.076;2022-10-26T02:35:04;102651.72;;;8.83;93.03
33635;BME280;19972;54.360;10.076;2022-10-26T02:37:32;102632.31;;;8.82;93.10
33635;BME280;19972;54.360;10.076;2022-10-26T02:40:03;102619.63;;;8.62;93.39
33635;BME280;19972;54.360;10.076;2022-10-26T02:42:31;102618.63;;;8.66;93.37
33635;BME280;19972;54.360;10.076;2022-10-26T02:45:06;102617.03;;;8.59;93.56
33635;BME280;19972;54.360;10.076;2022-10-26T02:47:35;102614.06;;;8.37;93.82
33635;BME280;19972;54.360;10.076;2022-10-26T02:50:02;102620.28;;;8.35;93.83
33635;BME280;19972;54.360;10.076;2022-10-26T02:55:34;102620.28;;;8.35;93.77
33635;BME280;19972;54.360;10.076;2022-10-26T02:58:07;102623.72;;;8.40;93.72
33635;BME280;19972;54.360;10.076;2022-10-26T03:00:37;102618.41;;;8.40;93.72
33635;BME280;19972;54.360;10.076;2022-10-26T03:03:04;102678.50;;;8.35;93.81
33635;BME280;19972;54.360;10.076;2022-10-26T03:05:31;102918.59;;;8.27;93.97
33635;BME280;19972;54.360;10.076;2022-10-26T03:07:59;102921.34;;;8.20;94.09
33635;BME280;19972;54.360;10.076;2022-10-26T03:10:26;102943.53;;;8.13;94.20
33635;BME280;19972;54.360;10.076;2022-10-26T03:12:53;102964.00;;;8.04;94.23
33635;BME280;19972;54.360;10.076;2022-10-26T03:15:19;102964.03;;;8.02;94.36
33635;BME280;19972;54.360;10.076;2022-10-26T03:17:46;102952.50;;;8.06;94.50
33635;BME280;19972;54.360;10.076;2022-10-26T03:20:13;102955.16;;;8.05;94.36
33635;BME280;19972;54.360;10.076;2022-10-26T03:22:39;102977.13;;;8.08;94.14
33635;BME280;19972;54.360;10.076;2022-10-26T03:25:06;102984.47;;;7.94;94.42
33635;BME280;19972;54.360;10.076;2022-10-26T03:27:34;102995.06;;;7.91;94.41
33635;BME280;19972;54.360;10.076;2022-10-26T03:30:00;102999.44;;;7.93;94.41
33635;BME280;19972;54.360;10.076;2022-10-26T03:32:27;103009.13;;;7.93;94.36
33635;BME280;19972;54.360;10.076;2022-10-26T03:34:53;103009.19;;;7.90;94.41
33635;BME280;19972;54.360;10.076;2022-10-26T03:37:19;103026.84;;;7.88;94.45
33635;BME280;19972;54.360;10.076;2022-10-26T03:39:46;103030.41;;;7.87;94.52
33635;BME280;19972;54.360;10.076;2022-10-26T03:42:12;103039.22;;;7.86;94.55
33635;BME280;19972;54.360;10.076;2022-10-26T03:44:39;103029.56;;;7.85;94.59
33635;BME280;19972;54.360;10.076;2022-10-26T03:47:05;103041.88;;;7.86;94.54
33635;BME280;19972;54.360;10.076;2022-10-26T03:49:32;103031.44;;;7.78;94.91
33635;BME280;19972;54.360;10.076;2022-10-26T03:51:58;103043.91;;;7.68;94.93
33635;BME280;19972;54.360;10.076;2022-10-26T03:54:24;103031.59;;;7.66;95.25
33635;BME280;19972;54.360;10.076;2022-10-26T03:56:51;103049.22;;;7.65;95.06
33635;BME280;19972;54.360;10.076;2022-10-26T03:59:20;103063.25;;;7.72;94.81
33635;BME280;19972;54.360;10.076;2022-10-26T04:01:47;103055.31;;;7.71;94.95
33635;BME280;19972;54.360;10.076;2022-10-26T04:04:18;103063.25;;;7.71;95.00
33635;BME280;19972;54.360;10.076;2022-10-26T04:06:44;103082.47;;;7.82;94.61
33635;BME280;19972;54.360;10.076;2022-10-26T04:09:11;103123.00;;;7.82;94.52
33635;BME280;19972;54.360;10.076;2022-10-26T04:11:38;103120.13;;;7.99;94.19
33635;BME280;19972;54.360;10.076;2022-10-26T04:14:04;103118.19;;;8.10;93.99
33635;BME280;19972;54.360;10.076;2022-10-26T04:16:31;103112.91;;;8.10;94.03
33635;BME280;19972;54.360;10.076;2022-10-26T04:18:59;103101.50;;;8.07;94.16
33635;BME280;19972;54.360;10.076;2022-10-26T04:21:25;103093.63;;;8.02;94.30
33635;BME280;19972;54.360;10.076;2022-10-26T04:23:52;103103.41;;;7.97;94.45
33635;BME280;19972;54.360;10.076;2022-10-26T04:26:19;103106.03;;;7.99;94.37
33635;BME280;19972;54.360;10.076;2022-10-26T04:28:45;103106.91;;;8.01;94.37
33635;BME280;19972;54.360;10.076;2022-10-26T04:31:11;103098.19;;;7.94;94.59
33635;BME280;19972;54.360;10.076;2022-10-26T04:33:38;103108.72;;;7.96;94.53
33635;BME280;19972;54.360;10.076;2022-10-26T04:36:05;103112.38;;;7.87;94.78
33635;BME280;19972;54.360;10.076;2022-10-26T04:38:31;103116.00;;;7.80;94.88
33635;BME280;19972;54.360;10.076;2022-10-26T04:40:58;103146.72;;;7.90;94.63
33635;BME280;19972;54.360;10.076;2022-10-26T04:43:24;103200.59;;;7.83;95.35
33635;BME280;19972;54.360;10.076;2022-10-26T04:45:55;103246.44;;;7.82;95.20
33635;BME280;19972;54.360;10.076;2022-10-26T04:48:22;103285.91;;;8.00;94.83
33635;BME280;19972;54.360;10.076;2022-10-26T04:50:50;103297.28;;;8.07;94.74
33635;BME280;19972;54.360;10.076;2022-10-26T04:53:17;103279.84;;;7.90;95.22
33635;BME280;19972;54.360;10.076;2022-10-26T04:55:43;103289.56;;;7.88;95.25
33635;BME280;19972;54.360;10.076;2022-10-26T04:58:10;103276.34;;;7.88;95.47
33635;BME280;19972;54.360;10.076;2022-10-26T05:00:36;103298.25;;;7.98;95.15
33635;BME280;19972;54.360;10.076;2022-10-26T05:03:05;103292.88;;;8.04;95.07
33635;BME280;19972;54.360;10.076;2022-10-26T05:05:33;103305.28;;;7.99;95.04
33635;BME280;19972;54.360;10.076;2022-10-26T05:08:00;103302.59;;;8.04;94.94
33635;BME280;19972;54.360;10.076;2022-10-26T05:10:27;103300.91;;;7.98;95.05
33635;BME280;19972;54.360;10.076;2022-10-26T05:12:55;103291.28;;;7.94;95.42
33635;BME280;19972;54.360;10.076;2022-10-26T05:15:22;103293.78;;;8.03;95.15
33635;BME280;19972;54.360;10.076;2022-10-26T05:18:05;103277.16;;;7.95;95.48
33635;BME280;19972;54.360;10.076;2022-10-26T05:20:33;103280.69;;;7.94;95.39
33635;BME280;19972;54.360;10.076;2022-10-26T05:23:05;103290.09;;;8.15;95.03
33635;BME280;19972;54.360;10.076;2022-10-26T05:25:36;103261.03;;;8.13;95.24
33635;BME280;19972;54.360;10.076;2022-10-26T05:28:05;103276.00;;;8.14;95.29
33635;BME280;19972;54.360;10.076;2022-10-26T05:30:36;103271.72;;;8.04;95.48
33635;BME280;19972;54.360;10.076;2022-10-26T05:33:05;103264.81;;;7.94;95.80
33635;BME280;19972;54.360;10.076;2022-10-26T05:35:32;103268.38;;;7.91;95.86
33635;BME280;19972;54.360;10.076;2022-10-26T05:38:05;103269.25;;;7.90;95.91
33635;BME280;19972;54.360;10.076;2022-10-26T05:40:32;103275.50;;;7.85;95.97
33635;BME280;19972;54.360;10.076;2022-10-26T05:43:00;103264.84;;;7.91;96.06
33635;BME280;19972;54.360;10.076;2022-10-26T05:45:27;103270.13;;;7.94;95.82
33635;BME280;19972;54.360;10.076;2022-10-26T05:47:54;103271.94;;;7.87;95.93
33635;BME280;19972;54.360;10.076;2022-10-26T05:50:27;103268.38;;;7.90;95.92
33635;BME280;19972;54.360;10.076;2022-10-26T05:52:53;103267.53;;;7.86;96.00
33635;BME280;19972;54.360;10.076;2022-10-26T05:55:21;103271.16;;;7.79;96.24
33635;BME280;19972;54.360;10.076;2022-10-26T05:57:48;103257.00;;;7.83;96.19
33635;BME280;19972;54.360;10.076;2022-10-26T06:00:18;103272.81;;;7.89;95.99
33635;BME280;19972;54.360;10.076;2022-10-26T06:05:44;103263.13;;;7.87;96.11
33635;BME280;19972;54.360;10.076;2022-10-26T06:08:16;103265.78;;;7.85;96.08
33635;BME280;19972;54.360;10.076;2022-10-26T06:10:42;103249.22;;;7.70;96.57
33635;BME280;19972;54.360;10.076;2022-10-26T06:13:09;103278.38;;;7.63;96.46
33635;BME280;19972;54.360;10.076;2022-10-26T06:15:44;103268.72;;;7.59;96.53
33635;BME280;19972;54.360;10.076;2022-10-26T06:18:28;103262.53;;;7.63;96.59
33635;BME280;19972;54.360;10.076;2022-10-26T06:21:41;103273.03;;;7.70;96.35
33635;BME280;19972;54.360;10.076;2022-10-26T06:24:11;103253.69;;;7.67;96.48
33635;BME280;19972;54.360;10.076;2022-10-26T06:26:58;103270.38;;;7.70;96.37
33635;BME280;19972;54.360;10.076;2022-10-26T06:29:44;103253.69;;;7.67;96.42
33635;BME280;19972;54.360;10.076;2022-10-26T06:32:15;103250.91;;;7.77;96.28
33635;BME280;19972;54.360;10.076;2022-10-26T06:34:45;103268.38;;;7.91;95.84
33635;BME280;19972;54.360;10.076;2022-10-26T06:37:14;103256.09;;;7.86;96.16
33635;BME280;19972;54.360;10.076;2022-10-26T06:39:46;103255.09;;;7.93;96.04
33635;BME280;19972;54.360;10.076;2022-10-26T06:42:20;103262.16;;;7.92;95.99
33635;BME280;19972;54.360;10.076;2022-10-26T06:44:47;103268.16;;;8.08;95.72
33635;BME280;19972;54.360;10.076;2022-10-26T06:50:18;103267.31;;;8.05;96.05
33635;BME280;19972;54.360;10.076;2022-10-26T06:55:44;103266.50;;;8.01;96.20
33635;BME280;19972;54.360;10.076;2022-10-26T06:58:19;103270.72;;;8.14;95.84
33635;BME280;19972;54.360;10.076;2022-10-26T07:00:48;103272.38;;;8.21;95.66
33635;BME280;19972;54.360;10.076;2022-10-26T07:03:15;103271.34;;;8.32;95.59
33635;BME280;19972;54.360;10.076;2022-10-26T07:05:43;103266.06;;;8.32;95.55
33635;BME280;19972;54.360;10.076;2022-10-26T07:08:10;103260.59;;;8.47;95.38
33635;BME280;19972;54.360;10.076;2022-10-26T07:10:37;103270.28;;;8.50;95.34
33635;BME280;19972;54.360;10.076;2022-10-26T07:13:05;103259.66;;;8.51;95.40
33635;BME280;19972;54.360;10.076;2022-10-26T07:15:33;103248.13;;;8.55;95.23
33635;BME280;19972;54.360;10.076;2022-10-26T07:18:00;103227.72;;;8.62;95.17
33635;BME280;19972;54.360;10.076;2022-10-26T07:20:28;103225.13;;;8.57;95.25
33635;BME280;19972;54.360;10.076;2022-10-26T07:22:55;103218.03;;;8.59;95.25
33635;BME280;19972;54.360;10.076;2022-10-26T07:25:23;103228.41;;;8.71;95.02
33635;BME280;19972;54.360;10.076;2022-10-26T07:27:51;103231.97;;;8.72;94.81
33635;BME280;19972;54.360;10.076;2022-10-26T07:30:17;103237.16;;;8.77;94.83
33635;BME280;19972;54.360;10.076;2022-10-26T07:32:44;103244.97;;;8.86;94.64
33635;BME280;19972;54.360;10.076;2022-10-26T07:35:10;103242.97;;;8.98;94.49
33635;BME280;19972;54.360;10.076;2022-10-26T07:37:37;103236.59;;;9.12;94.33
33635;BME280;19972;54.360;10.076;2022-10-26T07:40:04;103229.63;;;9.06;94.39
33635;BME280;19972;54.360;10.076;2022-10-26T07:42:33;103225.84;;;9.19;94.23
33635;BME280;19972;54.360;10.076;2022-10-26T07:44:59;103215.00;;;9.32;94.03
33635;BME280;19972;54.360;10.076;2022-10-26T07:47:26;103191.81;;;9.43;93.96
33635;BME280;19972;54.360;10.076;2022-10-26T07:49:52;103208.56;;;9.45;93.69
33635;BME280;19972;54.360;10.076;2022-10-26T07:52:18;103200.66;;;9.42;93.77
33635;BME280;19972;54.360;10.076;2022-10-26T07:54:45;103203.97;;;9.53;93.64
33635;BME280;19972;54.360;10.076;2022-10-26T07:57:11;103198.56;;;9.59;93.54
33635;BME280;19972;54.360;10.076;2022-10-26T07:59:38;103210.81;;;9.66;93.45
33635;BME280;19972;54.360;10.076;2022-10-26T08:02:04;103207.16;;;9.70;93.34
33635;BME280;19972;54.360;10.076;2022-10-26T08:04:31;103197.41;;;9.71;93.31
33635;BME280;19972;54.360;10.076;2022-10-26T08:06:58;103206.97;;;9.79;93.18
33635;BME280;19972;54.360;10.076;2022-10-26T08:09:24;103195.22;;;9.91;93.10
33635;BME280;19972;54.360;10.076;2022-10-26T08:11:50;103198.50;;;10.02;92.87
33635;BME280;19972;54.360;10.076;2022-10-26T08:14:17;103193.94;;;10.09;92.76
33635;BME280;19972;54.360;10.076;2022-10-26T08:16:43;103183.47;;;10.03;92.83
33635;BME280;19972;54.360;10.076;2022-10-26T08:19:10;103185.81;;;10.15;92.60
33635;BME280;19972;54.360;10.076;2022-10-26T08:21:37;103191.00;;;10.21;92.45
33635;BME280;19972;54.360;10.076;2022-10-26T08:24:06;103167.88;;;10.28;92.37
33635;BME280;19972;54.360;10.076;2022-10-26T08:26:33;103168.31;;;10.47;92.13
33635;BME280;19972;54.360;10.076;2022-10-26T08:28:59;103137.34;;;10.46;92.21
33635;BME280;19972;54.360;10.076;2022-10-26T08:31:25;103121.16;;;10.56;91.95
33635;BME280;19972;54.360;10.076;2022-10-26T08:33:52;103088.34;;;10.57;91.84
33635;BME280;19972;54.360;10.076;2022-10-26T08:36:24;102894.78;;;10.76;91.57
33635;BME280;19972;54.360;10.076;2022-10-26T08:38:51;102814.88;;;10.82;91.63
33635;BME280;19972;54.360;10.076;2022-10-26T08:41:32;102759.28;;;10.76;91.66
33635;BME280;19972;54.360;10.076;2022-10-26T08:44:17;102677.53;;;10.84;91.65
33635;BME280;19972;54.360;10.076;2022-10-26T08:46:50;102604.97;;;10.82;91.63
33635;BME280;19972;54.360;10.076;2022-10-26T08:49:28;102583.63;;;10.86;91.59
33635;BME280;19972;54.360;10.076;2022-10-26T08:51:59;102577.53;;;11.07;91.34
33635;BME280;19972;54.360;10.076;2022-10-26T08:54:53;102560.19;;;11.20;91.17
33635;BME280;19972;54.360;10.076;2022-10-26T08:57:23;102541.59;;;11.20;91.30
33635;BME280;19972;54.360;10.076;2022-10-26T08:59:58;102538.13;;;11.18;91.31
33635;BME280;19972;54.360;10.076;2022-10-26T09:02:25;102515.66;;;11.49;90.98
33635;BME280;19972;54.360;10.076;2022-10-26T09:04:52;102527.81;;;11.56;90.89
33635;BME280;19972;54.360;10.076;2022-10-26T09:07:41;102526.94;;;11.55;90.83
33635;BME280;19972;54.360;10.076;2022-10-26T09:13:01;102470.09;;;11.58;90.95
33635;BME280;19972;54.360;10.076;2022-10-26T09:15:45;102453.44;;;11.75;90.81
33635;BME280;19972;54.360;10.076;2022-10-26T09:29:26;102169.59;;;12.51;90.88
33635;BME280;19972;54.360;10.076;2022-10-26T09:31:54;102121.66;;;12.68;91.14
33635;BME280;19972;54.360;10.076;2022-10-26T09:34:28;102129.34;;;12.74;91.03
33635;BME280;19972;54.360;10.076;2022-10-26T09:36:56;102141.31;;;12.65;91.19
33635;BME280;19972;54.360;10.076;2022-10-26T09:39:31;102137.34;;;12.74;91.26
33635;BME280;19972;54.360;10.076;2022-10-26T09:42:05;102099.94;;;12.76;91.60
33635;BME280;19972;54.360;10.076;2022-10-26T09:44:43;102105.34;;;12.91;91.72
33635;BME280;19972;54.360;10.076;2022-10-26T09:49:55;102094.53;;;13.45;91.85
33635;BME280;19972;54.360;10.076;2022-10-26T09:52:23;102091.81;;;13.62;92.20
33635;BME280;19972;54.360;10.076;2022-10-26T09:54:50;102092.69;;;13.79;92.74
33635;BME280;19972;54.360;10.076;2022-10-26T09:57:18;102094.06;;;14.02;93.02
33635;BME280;19972;54.360;10.076;2022-10-26T09:59:46;102075.72;;;14.41;93.32
33635;BME280;19972;54.360;10.076;2022-10-26T10:05:32;102011.13;;;14.79;95.70
33635;BME280;19972;54.360;10.076;2022-10-26T10:08:23;101963.38;;;15.01;97.35
33635;BME280;19972;54.360;10.076;2022-10-26T10:13:23;101888.91;;;14.95;100.00
33635;BME280;19972;54.360;10.076;2022-10-26T10:16:19;101854.03;;;14.97;100.00
33635;BME280;19972;54.360;10.076;2022-10-26T10:18:53;101807.97;;;15.33;100.00
33635;BME280;19972;54.360;10.076;2022-10-26T10:21:34;101753.53;;;15.20;100.00
33635;BME280;19972;54.360;10.076;2022-10-26T10:24:52;101715.13;;;14.81;100.00
33635;BME280;19972;54.360;10.076;2022-10-26T10:29:33;101645.91;;;15.42;100.00
33635;BME280;19972;54.360;10.076;2022-10-26T10:32:01;101610.91;;;15.83;100.00
33635;BME280;19972;54.360;10.076;2022-10-26T10:34:30;101569.44;;;16.36;100.00
33635;BME280;19972;54.360;10.076;2022-10-26T10:36:57;101552.38;;;17.19;100.00
33635;BME280;19972;54.360;10.076;2022-10-26T10:39:30;101515.66;;;18.82;100.00
33635;BME280;19972;54.360;10.076;2022-10-26T10:41:59;101485.16;;;19.63;100.00
33635;BME280;19972;54.360;10.076;2022-10-26T10:44:28;101474.94;;;18.44;100.00
33635;BME280;19972;54.360;10.076;2022-10-26T10:47:02;101489.13;;;19.29;100.00
33635;BME280;19972;54.360;10.076;2022-10-26T10:49:29;101499.25;;;20.44;100.00
33635;BME280;19972;54.360;10.076;2022-10-26T10:51:56;101534.38;;;19.35;100.00
33635;BME280;19972;54.360;10.076;2022-10-26T10:54:34;101550.00;;;18.68;100.00
33635;BME280;19972;54.360;10.076;2022-10-26T10:57:21;101544.16;;;19.36;100.00
33635;BME280;19972;54.360;10.076;2022-10-26T11:00:09;101557.88;;;19.63;100.00
33635;BME280;19972;54.360;10.076;2022-10-26T11:03:13;101550.84;;;19.72;100.00
33635;BME280;19972;54.360;10.076;2022-10-26T11:13:58;101515.41;;;19.96;100.00
33635;BME280;19972;54.360;10.076;2022-10-26T11:16:41;101512.28;;;19.71;100.00
33635;BME280;19972;54.360;10.076;2022-10-26T11:19:19;101515.97;;;21.61;100.00
33635;BME280;19972;54.360;10.076;2022-10-26T11:21:52;101533.84;;;22.17;100.00
33635;BME280;19972;54.360;10.076;2022-10-26T11:24:34;101607.53;;;21.27;100.00
33635;BME280;19972;54.360;10.076;2022-10-26T11:27:16;101519.13;;;19.95;100.00
33635;BME280;19972;54.360;10.076;2022-10-26T11:30:06;101781.00;;;19.05;100.00
33635;BME280;19972;54.360;10.076;2022-10-26T11:32:42;101746.13;;;18.60;100.00
33635;BME280;19972;54.360;10.076;2022-10-26T11:35:15;101736.78;;;18.76;100.00
33635;BME280;19972;54.360;10.076;2022-10-26T11:38:02;101727.63;;;18.78;100.00
33635;BME280;19972;54.360;10.076;2022-10-26T11:40:56;101709.75;;;18.11;100.00
33635;BME280;19972;54.360;10.076;2022-10-26T11:46:16;101726.75;;;17.43;100.00
33635;BME280;19972;54.360;10.076;2022-10-26T11:51:47;101726.78;;;19.93;100.00
33635;BME280;19972;54.360;10.076;2022-10-26T11:54:22;101703.34;;;21.89;100.00
33635;BME280;19972;54.360;10.076;2022-10-26T11:56:52;101642.56;;;22.21;100.00
33635;BME280;19972;54.360;10.076;2022-10-26T11:59:23;101582.75;;;22.77;100.00
33635;BME280;19972;54.360;10.076;2022-10-26T12:02:01;101544.72;;;23.73;100.00
33635;BME280;19972;54.360;10.076;2022-10-26T12:04:32;101552.75;;;23.49;100.00
33635;BME280;19972;54.360;10.076;2022-10-26T12:07:01;101487.16;;;24.85;100.00
33635;BME280;19972;54.360;10.076;2022-10-26T12:09:35;101463.22;;;25.36;100.00
33635;BME280;19972;54.360;10.076;2022-10-26T12:12:10;101420.63;;;25.60;100.00
33635;BME280;19972;54.360;10.076;2022-10-26T12:17:39;101332.19;;;26.24;100.00
33635;BME280;19972;54.360;10.076;2022-10-26T12:20:33;101308.03;;;26.06;100.00
33635;BME280;19972;54.360;10.076;2022-10-26T12:23:08;101310.53;;;25.56;100.00
33635;BME280;19972;54.360;10.076;2022-10-26T12:25:39;101273.69;;;26.05;100.00
33635;BME280;19972;54.360;10.076;2022-10-26T12:28:37;101243.00;;;26.56;100.00
33635;BME280;19972;54.360;10.076;2022-10-26T12:34:13;101359.63;;;24.20;100.00
33635;BME280;19972;54.360;10.076;2022-10-26T12:39:34;101473.81;;;22.83;100.00
33635;BME280;19972;54.360;10.076;2022-10-26T12:45:01;101519.00;;;21.11;100.00
33635;BME280;19972;54.360;10.076;2022-10-26T12:52:52;101497.22;;;18.98;100.00
33635;BME280;19972;54.360;10.076;2022-10-26T13:01:28;101491.03;;;19.07;100.00
33635;BME280;19972;54.360;10.076;2022-10-26T13:04:12;101488.44;;;18.96;100.00
33635;BME280;19972;54.360;10.076;2022-10-26T13:06:50;101494.06;;;18.93;100.00
33635;BME280;19972;54.360;10.076;2022-10-26T13:09:22;101503.78;;;19.86;100.00
33635;BME280;19972;54.360;10.076;2022-10-26T13:11:52;101493.03;;;20.05;100.00
33635;BME280;19972;54.360;10.076;2022-10-26T13:14:23;101485.88;;;20.43;100.00
33635;BME280;19972;54.360;10.076;2022-10-26T13:16:51;101476.00;;;19.95;100.00
33635;BME280;19972;54.360;10.076;2022-10-26T13:19:26;101490.53;;;19.23;100.00
33635;BME280;19972;54.360;10.076;2022-10-26T13:21:57;101487.16;;;19.31;100.00
33635;BME280;19972;54.360;10.076;2022-10-26T13:24:27;101474.81;;;18.88;100.00
33635;BME280;19972;54.360;10.076;2022-10-26T13:29:31;101475.50;;;18.06;100.00
33635;BME280;19972;54.360;10.076;2022-10-26T13:31:58;101486.72;;;18.11;100.00
33635;BME280;19972;54.360;10.076;2022-10-26T13:34:29;101477.66;;;17.80;100.00
33635;BME280;19972;54.360;10.076;2022-10-26T13:39:29;101475.97;;;18.11;100.00
33635;BME280;19972;54.360;10.076;2022-10-26T13:41:57;101475.63;;;17.50;100.00
33635;BME280;19972;54.360;10.076;2022-10-26T13:44:32;101470.81;;;17.76;100.00
33635;BME280;19972;54.360;10.076;2022-10-26T13:47:08;101472.09;;;17.93;100.00
33635;BME280;19972;54.360;10.076;2022-10-26T13:49:38;101460.34;;;18.05;100.00
33635;BME280;19972;54.360;10.076;2022-10-26T13:52:17;101460.06;;;18.08;100.00
33635;BME280;19972;54.360;10.076;2022-10-26T13:54:52;101468.22;;;18.81;100.00
33635;BME280;19972;54.360;10.076;2022-10-26T14:00:21;101490.13;;;19.28;100.00
33635;BME280;19972;54.360;10.076;2022-10-26T14:02:48;101509.97;;;19.76;100.00
33635;BME280;19972;54.360;10.076;2022-10-26T14:05:17;101532.47;;;20.06;100.00
33635;BME280;19972;54.360;10.076;2022-10-26T14:07:44;101550.34;;;20.07;100.00
33635;BME280;19972;54.360;10.076;2022-10-26T14:10:46;101571.41;;;20.62;100.00
33635;BME280;19972;54.360;10.076;2022-10-26T14:13:15;101580.84;;;21.04;100.00
33635;BME280;19972;54.360;10.076;2022-10-26T14:15:44;101587.63;;;21.18;100.00
33635;BME280;19972;54.360;10.076;2022-10-26T14:18:24;101596.50;;;22.12;100.00
33635;BME280;19972;54.360;10.076;2022-10-26T14:25:53;101555.75;;;20.75;100.00
33635;BME280;19972;54.360;10.076;2022-10-26T14:28:29;101556.41;;;20.09;100.00
33635;BME280;19972;54.360;10.076;2022-10-26T14:31:19;101550.88;;;19.20;100.00
33635;BME280;19972;54.360;10.076;2022-10-26T14:33:46;101527.41;;;18.81;100.00
33635;BME280;19972;54.360;10.076;2022-10-26T14:36:14;101510.16;;;18.62;100.00
33635;BME280;19972;54.360;10.076;2022-10-26T14:38:42;101504.44;;;18.35;100.00
33635;BME280;19972;54.360;10.076;2022-10-26T14:41:13;101505.81;;;18.92;100.00
33635;BME280;19972;54.360;10.076;2022-10-26T14:43:41;101493.81;;;18.54;100.00
33635;BME280;19972;54.360;10.076;2022-10-26T14:46:16;101491.53;;;18.50;100.00
33635;BME280;19972;54.360;10.076;2022-10-26T14:48:52;101493.31;;;18.07;100.00